createdAt,value
2019-02-03T00:01:02.767Z,61.47
2019-02-03T00:03:32.123Z,65.77
2019-02-03T00:06:01.431Z,67.00
2019-02-03T00:08:30.783Z,67.37
2019-02-03T00:11:00.097Z,59.37
2019-02-03T00:13:31.227Z,58.60
2019-02-03T00:15:58.712Z,64.83
2019-02-03T00:18:28.017Z,60.63
2019-02-03T00:20:57.437Z,50.40
2019-02-03T00:23:26.797Z,63.17
2019-02-03T00:25:56.124Z,61.83
2019-02-03T00:28:25.443Z,55.23
2019-02-03T00:30:54.826Z,58.00
2019-02-03T00:33:24.222Z,62.67
2019-02-03T00:35:53.515Z,63.33
2019-02-03T00:38:24.479Z,58.17
2019-02-03T00:40:52.139Z,59.17
2019-02-03T00:43:21.405Z,63.30
2019-02-03T00:45:50.709Z,59.13
2019-02-03T00:48:20.104Z,60.70
2019-02-03T00:50:49.373Z,55.07
2019-02-03T00:53:18.760Z,51.13
2019-02-03T00:55:48.038Z,60.10
2019-02-03T00:58:17.394Z,55.70
2019-02-03T01:00:46.743Z,57.63
2019-02-03T01:03:16.045Z,56.33
2019-02-03T01:05:45.350Z,57.87
2019-02-03T01:08:14.699Z,58.90
2019-02-03T01:10:44.041Z,57.97
2019-02-03T01:13:13.351Z,53.67
2019-02-03T01:15:42.677Z,56.67
2019-02-03T01:18:11.945Z,56.53
2019-02-03T01:20:41.272Z,58.00
2019-02-03T01:23:10.607Z,58.70
2019-02-03T01:25:39.949Z,59.23
2019-02-03T01:28:09.535Z,54.33
2019-02-03T01:30:38.887Z,57.63
2019-02-03T01:33:08.201Z,52.27
2019-02-03T01:35:37.457Z,54.20
2019-02-03T01:38:06.758Z,57.30
2019-02-03T01:40:36.071Z,52.50
2019-02-03T01:43:05.413Z,49.47
2019-02-03T01:45:34.677Z,53.13
2019-02-03T01:48:04.002Z,57.47
2019-02-03T01:50:33.304Z,56.37
2019-02-03T01:53:02.648Z,55.63
2019-02-03T01:55:31.868Z,58.00
2019-02-03T01:58:01.216Z,59.30
2019-02-03T02:00:30.524Z,59.07
2019-02-03T02:02:59.884Z,56.87
2019-02-03T02:05:29.213Z,60.07
2019-02-03T02:07:58.590Z,56.20
2019-02-03T02:10:28.045Z,56.20
2019-02-03T02:12:57.396Z,58.67
2019-02-03T02:15:26.727Z,58.17
2019-02-03T02:17:56.101Z,58.50
2019-02-03T02:20:28.813Z,56.50
2019-02-03T02:22:58.206Z,59.40
2019-02-03T02:25:27.531Z,59.27
2019-02-03T02:27:56.842Z,62.23
2019-02-03T02:30:26.476Z,60.17
2019-02-03T02:32:55.731Z,46.57
2019-02-03T02:35:25.044Z,62.20
2019-02-03T02:38:05.696Z,60.90
2019-02-03T02:40:24.449Z,56.73
2019-02-03T02:42:53.894Z,58.03
2019-02-03T02:45:23.168Z,63.57
2019-02-03T02:47:52.479Z,57.03
2019-02-03T02:50:30.560Z,60.40
2019-02-03T02:52:59.963Z,59.23
2019-02-03T02:55:29.287Z,57.33
2019-02-03T02:57:58.529Z,60.43
2019-02-03T03:00:27.869Z,61.77
2019-02-03T03:02:57.147Z,59.83
2019-02-03T03:05:26.415Z,59.13
2019-02-03T03:07:55.639Z,55.20
2019-02-03T03:10:24.932Z,59.63
2019-02-03T03:12:54.270Z,56.80
2019-02-03T03:15:23.534Z,57.00
2019-02-03T03:17:52.873Z,55.10
2019-02-03T03:20:22.188Z,51.90
2019-02-03T03:22:51.471Z,55.20
2019-02-03T03:25:20.933Z,56.73
2019-02-03T03:27:50.199Z,56.33
2019-02-03T03:30:27.194Z,55.53
2019-02-03T03:32:56.276Z,54.93
2019-02-03T03:35:25.698Z,55.53
2019-02-03T03:37:54.933Z,57.60
2019-02-03T03:40:28.549Z,56.90
2019-02-03T03:42:58.049Z,56.73
2019-02-03T03:45:27.237Z,58.63
2019-02-03T03:47:56.575Z,58.17
2019-02-03T03:50:25.904Z,59.70
2019-02-03T03:52:55.236Z,56.10
2019-02-03T03:55:24.765Z,57.63
2019-02-03T03:57:54.193Z,58.13
2019-02-03T04:00:24.981Z,56.00
2019-02-03T04:02:54.301Z,53.20
2019-02-03T04:05:23.697Z,55.30
2019-02-03T04:07:53.100Z,54.20
2019-02-03T04:10:23.332Z,57.20
2019-02-03T04:12:52.687Z,56.27
2019-02-03T04:15:21.948Z,55.70
2019-02-03T04:17:51.342Z,55.20
2019-02-03T04:20:25.552Z,60.83
2019-02-03T04:22:54.979Z,55.27
2019-02-03T04:25:24.341Z,57.13
2019-02-03T04:27:53.647Z,55.37
2019-02-03T04:30:23.708Z,56.63
2019-02-03T04:32:53.068Z,59.73
2019-02-03T04:35:22.442Z,57.90
2019-02-03T04:37:51.699Z,57.87
2019-02-03T04:40:21.723Z,55.67
2019-02-03T04:42:51.253Z,58.90
2019-02-03T04:45:22.796Z,55.37
2019-02-03T04:47:49.886Z,53.50
2019-02-03T04:50:20.410Z,53.80
2019-02-03T04:52:49.741Z,56.30
2019-02-03T04:55:19.471Z,54.37
2019-02-03T04:57:48.717Z,54.43
2019-02-03T05:00:24.826Z,55.93
2019-02-03T05:02:54.133Z,54.50
2019-02-03T05:05:23.435Z,53.40
2019-02-03T05:07:52.710Z,51.37
2019-02-03T05:10:22.005Z,51.80
2019-02-03T05:12:51.279Z,51.23
2019-02-03T05:15:22.683Z,52.17
2019-02-03T05:17:52.053Z,52.73
2019-02-03T05:20:23.642Z,50.77
2019-02-03T05:22:52.923Z,54.83
2019-02-03T05:25:22.975Z,49.87
2019-02-03T05:27:52.237Z,52.93
2019-02-03T05:30:32.611Z,51.67
2019-02-03T05:33:01.903Z,50.90
2019-02-03T05:35:31.219Z,48.70
2019-02-03T05:38:00.570Z,48.23
2019-02-03T05:40:29.759Z,47.13
2019-02-03T05:42:59.103Z,35.97
2019-02-03T05:45:28.426Z,42.63
2019-02-03T05:47:57.735Z,45.03
2019-02-03T05:50:26.999Z,41.40
2019-02-03T05:52:56.334Z,46.53
2019-02-03T05:55:25.711Z,38.47
2019-02-03T05:57:54.999Z,43.73
2019-02-03T06:00:30.807Z,35.50
2019-02-03T06:03:00.097Z,34.03
2019-02-03T06:05:29.356Z,39.93
2019-02-03T06:07:58.649Z,41.47
2019-02-03T06:10:28.081Z,32.77
2019-02-03T06:12:57.425Z,38.50
2019-02-03T06:15:26.677Z,42.50
2019-02-03T06:17:55.987Z,44.30
2019-02-03T06:20:25.329Z,41.60
2019-02-03T06:22:54.604Z,43.07
2019-02-03T06:25:23.888Z,40.43
2019-02-03T06:27:53.199Z,42.33
2019-02-03T06:31:14.729Z,43.50
2019-02-03T06:33:46.913Z,42.70
2019-02-03T06:36:16.817Z,41.80
2019-02-03T06:38:46.138Z,42.20
2019-02-03T06:41:15.492Z,42.20
2019-02-03T06:43:44.773Z,41.37
2019-02-03T06:46:42.123Z,43.50
2019-02-03T06:49:31.481Z,42.47
2019-02-03T06:52:00.739Z,41.57
2019-02-03T06:54:30.025Z,43.43
2019-02-03T06:56:59.305Z,42.57
2019-02-03T06:59:28.595Z,44.87
2019-02-03T07:01:58.003Z,42.73
2019-02-03T07:04:27.356Z,41.90
2019-02-03T07:06:56.618Z,40.57
2019-02-03T07:09:25.957Z,41.43
2019-02-03T07:12:00.659Z,39.50
2019-02-03T07:14:29.949Z,40.50
2019-02-03T07:16:59.246Z,29.83
2019-02-03T07:19:28.581Z,39.10
2019-02-03T07:21:57.965Z,33.70
2019-02-03T07:24:27.267Z,37.30
2019-02-03T07:26:56.567Z,30.03
2019-02-03T07:29:25.926Z,34.50
2019-02-03T07:31:55.268Z,33.97
2019-02-03T07:34:27.866Z,36.00
2019-02-03T07:36:57.102Z,31.60
2019-02-03T07:39:26.362Z,30.33
2019-02-03T07:41:55.779Z,35.17
2019-02-03T07:44:25.417Z,34.50
2019-02-03T07:46:54.699Z,33.90
2019-02-03T07:49:24.147Z,35.00
2019-02-03T07:51:53.410Z,32.17
2019-02-03T07:54:22.685Z,33.60
2019-02-03T07:56:52.100Z,24.87
2019-02-03T07:59:21.602Z,33.17
2019-02-03T08:01:51.104Z,29.20
2019-02-03T08:04:20.387Z,29.67
2019-02-03T08:06:49.734Z,33.03
2019-02-03T08:09:19.003Z,32.73
2019-02-03T08:11:48.402Z,32.43
2019-02-03T08:14:17.826Z,32.13
2019-02-03T08:16:47.171Z,23.37
2019-02-03T08:19:16.569Z,27.27
2019-02-03T08:21:46.010Z,31.67
2019-02-03T08:24:15.380Z,32.27
2019-02-03T08:26:44.796Z,31.70
2019-02-03T08:29:14.847Z,29.83
2019-02-03T08:31:43.479Z,28.27
2019-02-03T08:34:12.970Z,31.20
2019-02-03T08:36:42.370Z,29.33
2019-02-03T08:39:11.659Z,30.47
2019-02-03T08:41:41.068Z,27.77
2019-02-03T08:44:10.569Z,24.90
2019-02-03T08:46:39.829Z,29.90
2019-02-03T08:49:09.142Z,29.40
2019-02-03T08:51:38.403Z,24.70
2019-02-03T08:54:07.840Z,28.80
2019-02-03T08:56:37.075Z,28.97
2019-02-03T08:59:06.470Z,29.37
2019-02-03T09:01:35.738Z,29.57
2019-02-03T09:04:05.357Z,28.73
2019-02-03T09:06:34.745Z,28.43
2019-02-03T09:09:06.986Z,29.20
2019-02-03T09:11:36.328Z,29.03
2019-02-03T09:14:05.742Z,22.43
2019-02-03T09:16:35.022Z,27.37
2019-02-03T09:19:04.332Z,26.33
2019-02-03T09:21:33.627Z,27.70
2019-02-03T09:24:02.927Z,27.03
2019-02-03T09:26:32.343Z,21.23
2019-02-03T09:29:01.651Z,24.57
2019-02-03T09:31:31.055Z,25.87
2019-02-03T09:34:00.359Z,25.07
2019-02-03T09:36:29.745Z,25.53
2019-02-03T09:38:59.164Z,24.87
2019-02-03T09:41:28.435Z,22.80
2019-02-03T09:43:57.865Z,23.63
2019-02-03T09:46:27.155Z,25.20
2019-02-03T09:48:56.629Z,24.50
2019-02-03T09:51:25.962Z,25.03
2019-02-03T09:53:55.237Z,22.50
2019-02-03T09:56:24.623Z,23.53
2019-02-03T09:58:53.952Z,22.20
2019-02-03T10:01:23.290Z,23.53
2019-02-03T10:03:52.663Z,24.07
2019-02-03T10:06:22.025Z,21.93
2019-02-03T10:08:51.285Z,23.47
2019-02-03T10:11:22.845Z,20.47
2019-02-03T10:13:50.071Z,21.30
2019-02-03T10:16:19.358Z,20.40
2019-02-03T10:18:48.700Z,21.40
2019-02-03T10:21:18.130Z,20.77
2019-02-03T10:23:47.437Z,21.10
2019-02-03T10:26:16.797Z,18.77
2019-02-03T10:28:46.632Z,18.67
2019-02-03T10:31:15.433Z,19.57
2019-02-03T10:33:44.730Z,18.27
2019-02-03T10:36:14.097Z,19.57
2019-02-03T10:38:43.358Z,19.50
2019-02-03T10:41:23.459Z,19.73
2019-02-03T10:43:42.096Z,20.00
2019-02-03T10:46:11.519Z,19.60
2019-02-03T10:48:40.871Z,18.90
2019-02-03T10:51:10.424Z,19.60
2019-02-03T10:53:39.721Z,17.17
2019-02-03T10:56:09.024Z,18.17
2019-02-03T10:58:38.301Z,18.17
2019-02-03T11:01:07.883Z,17.93
2019-02-03T11:03:37.249Z,19.43
2019-02-03T11:06:08.511Z,18.90
2019-02-03T11:08:37.931Z,19.40
2019-02-03T11:11:07.645Z,18.30
2019-02-03T11:13:36.993Z,17.83
2019-02-03T11:16:06.402Z,19.17
2019-02-03T11:18:35.708Z,17.73
2019-02-03T11:21:04.990Z,17.97
2019-02-03T11:23:34.296Z,18.50
2019-02-03T11:26:03.609Z,19.50
2019-02-03T11:28:32.982Z,18.60
2019-02-03T11:31:04.973Z,18.43
2019-02-03T11:33:35.054Z,17.17
2019-02-03T11:36:04.431Z,17.23
2019-02-03T11:38:33.701Z,16.87
2019-02-03T11:41:03.541Z,17.90
2019-02-03T11:43:32.816Z,16.17
2019-02-03T11:46:02.139Z,16.90
2019-02-03T11:48:31.411Z,17.23
2019-02-03T11:51:00.724Z,15.57
2019-02-03T11:53:30.085Z,15.23
2019-02-03T11:55:59.443Z,15.87
2019-02-03T11:58:28.723Z,14.20
2019-02-03T12:00:58.537Z,15.73
2019-02-03T12:03:27.833Z,15.63
2019-02-03T12:05:57.163Z,14.37
2019-02-03T12:08:26.527Z,13.83
2019-02-03T12:10:55.987Z,14.27
2019-02-03T12:13:25.347Z,13.37
2019-02-03T12:15:54.645Z,11.90
2019-02-03T12:18:24.245Z,14.00
2019-02-03T12:20:53.587Z,10.10
2019-02-03T12:23:22.899Z,11.90
2019-02-03T12:25:52.199Z,11.50
2019-02-03T12:28:21.548Z,12.23
2019-02-03T12:30:50.855Z,11.80
2019-02-03T12:33:20.265Z,12.67
2019-02-03T12:35:49.571Z,11.93
2019-02-03T12:38:18.836Z,11.70
2019-02-03T12:40:48.095Z,11.10
2019-02-03T12:43:17.507Z,11.57
2019-02-03T12:45:46.850Z,10.87
2019-02-03T12:48:16.210Z,10.00
2019-02-03T12:50:45.577Z,10.23
2019-02-03T12:53:14.851Z,10.47
2019-02-03T12:55:45.012Z,10.40
2019-02-03T12:58:14.097Z,9.40
2019-02-03T13:00:43.378Z,10.67
2019-02-03T13:03:12.871Z,9.30
2019-02-03T13:05:42.163Z,8.77
2019-02-03T13:08:11.501Z,8.93
2019-02-03T13:10:40.800Z,7.97
2019-02-03T13:13:10.427Z,8.37
2019-02-03T13:15:50.771Z,7.40
2019-02-03T13:18:20.076Z,7.37
2019-02-03T13:20:49.346Z,8.33
2019-02-03T13:23:18.711Z,6.80
2019-02-03T13:25:48.179Z,7.63
2019-02-03T13:28:17.675Z,7.07
2019-02-03T13:30:48.911Z,5.60
2019-02-03T13:33:18.450Z,7.80
2019-02-03T13:35:47.755Z,6.93
2019-02-03T13:38:17.025Z,7.27
2019-02-03T13:40:46.308Z,7.50
2019-02-03T13:43:15.649Z,6.83
2019-02-03T13:45:45.263Z,7.23
2019-02-03T13:48:14.227Z,7.20
2019-02-03T13:50:43.574Z,6.63
2019-02-03T13:53:12.826Z,6.80
2019-02-03T13:55:42.130Z,7.03
2019-02-03T13:58:11.512Z,6.37
2019-02-03T14:00:43.226Z,6.20
2019-02-03T14:03:12.491Z,5.50
2019-02-03T14:05:41.785Z,6.60
2019-02-03T14:08:11.092Z,7.07
2019-02-03T14:10:40.389Z,6.53
2019-02-03T14:13:09.871Z,6.93
2019-02-03T14:15:39.198Z,7.00
2019-02-03T14:18:08.611Z,6.57
2019-02-03T14:20:37.933Z,6.63
2019-02-03T14:23:07.628Z,6.20
2019-02-03T14:25:36.946Z,8.07
2019-02-03T14:28:06.231Z,5.93
2019-02-03T14:30:41.551Z,5.60
2019-02-03T14:33:10.503Z,4.73
2019-02-03T14:35:39.812Z,5.37
2019-02-03T14:38:09.263Z,5.67
2019-02-03T14:40:38.571Z,5.37
2019-02-03T14:43:07.876Z,6.20
2019-02-03T14:45:37.223Z,6.23
2019-02-03T14:48:06.971Z,6.10
2019-02-03T14:50:36.287Z,5.57
2019-02-03T14:53:08.392Z,5.93
2019-02-03T14:55:39.330Z,5.17
2019-02-03T14:58:08.920Z,5.77
2019-02-03T15:00:40.819Z,5.40
2019-02-03T15:03:18.295Z,5.47
2019-02-03T15:05:47.533Z,5.57
2019-02-03T15:08:16.890Z,6.10
2019-02-03T15:10:46.215Z,5.37
2019-02-03T15:13:17.634Z,5.03
2019-02-03T15:15:47.071Z,5.20
2019-02-03T15:18:16.647Z,5.33
2019-02-03T15:20:45.916Z,5.70
2019-02-03T15:23:15.321Z,6.00
2019-02-03T15:25:44.721Z,5.97
2019-02-03T15:28:15.488Z,5.63
2019-02-03T15:30:47.141Z,5.77
2019-02-03T15:33:16.423Z,5.50
2019-02-03T15:35:45.725Z,6.37
2019-02-03T15:38:15.053Z,8.27
2019-02-03T15:40:44.361Z,6.07
2019-02-03T15:43:24.667Z,6.03
2019-02-03T15:45:42.997Z,6.03
2019-02-03T15:48:12.348Z,7.53
2019-02-03T15:50:41.679Z,6.83
2019-02-03T15:53:11.170Z,6.23
2019-02-03T15:55:40.432Z,7.00
2019-02-03T15:58:11.029Z,7.73
2019-02-03T16:00:42.952Z,7.03
2019-02-03T16:03:12.485Z,6.67
2019-02-03T16:05:41.787Z,7.30
2019-02-03T16:08:14.383Z,6.23
2019-02-03T16:10:43.730Z,6.53
2019-02-03T16:13:13.038Z,6.50
2019-02-03T16:15:42.332Z,6.53
2019-02-03T16:18:11.969Z,6.73
2019-02-03T16:20:45.993Z,6.10
2019-02-03T16:23:17.431Z,6.40
2019-02-03T16:25:46.811Z,6.63
2019-02-03T16:28:16.157Z,6.20
2019-02-03T16:30:45.664Z,6.07
2019-02-03T16:33:15.220Z,6.40
2019-02-03T16:35:44.704Z,6.37
2019-02-03T16:38:22.555Z,7.73
2019-02-03T16:40:43.407Z,6.70
2019-02-03T16:43:12.785Z,6.93
2019-02-03T16:45:44.803Z,6.70
2019-02-03T16:48:14.489Z,5.70
2019-02-03T16:50:43.822Z,6.10
2019-02-03T16:53:13.215Z,5.73
2019-02-03T16:55:42.531Z,6.33
2019-02-03T16:58:11.897Z,5.47
2019-02-03T17:00:41.242Z,5.70
2019-02-03T17:03:10.596Z,5.67
2019-02-03T17:05:39.912Z,5.63
2019-02-03T17:08:09.288Z,5.93
2019-02-03T17:10:38.674Z,6.67
2019-02-03T17:13:08.055Z,6.27
2019-02-03T17:15:44.679Z,5.97
2019-02-03T17:18:14.007Z,5.53
2019-02-03T17:20:43.338Z,5.80
2019-02-03T17:23:12.685Z,6.30
2019-02-03T17:25:44.722Z,5.97
2019-02-03T17:28:14.195Z,6.27
2019-02-03T17:30:43.475Z,5.80
2019-02-03T17:33:13.892Z,6.10
2019-02-03T17:35:54.059Z,6.40
2019-02-03T17:38:12.436Z,6.30
2019-02-03T17:40:41.783Z,5.87
2019-02-03T17:43:11.479Z,6.53
2019-02-03T17:45:42.907Z,6.00
2019-02-03T17:48:12.230Z,6.70
2019-02-03T17:50:41.563Z,6.53
2019-02-03T17:53:10.885Z,6.00
2019-02-03T17:55:40.281Z,6.37
2019-02-03T17:58:09.669Z,5.93
2019-02-03T18:00:41.168Z,7.03
2019-02-03T18:03:10.535Z,6.70
2019-02-03T18:05:39.888Z,7.23
2019-02-03T18:08:09.665Z,6.03
2019-02-03T18:10:39.035Z,6.20
2019-02-03T18:13:08.397Z,6.63
2019-02-03T18:15:37.824Z,6.87
2019-02-03T18:18:09.176Z,6.67
2019-02-03T18:20:38.938Z,6.47
2019-02-03T18:23:08.285Z,6.10
2019-02-03T18:25:37.656Z,6.23
2019-02-03T18:28:07.330Z,5.70
2019-02-03T18:30:37.084Z,6.67
2019-02-03T18:33:07.482Z,6.07
2019-02-03T18:35:36.821Z,6.93
2019-02-03T18:38:07.831Z,6.13
2019-02-03T18:40:37.189Z,6.53
2019-02-03T18:43:06.482Z,5.67
2019-02-03T18:45:35.765Z,6.17
2019-02-03T18:48:05.356Z,6.40
2019-02-03T18:50:34.789Z,5.80
2019-02-03T18:53:04.116Z,5.40
2019-02-03T18:55:35.324Z,5.60
2019-02-03T18:58:04.657Z,5.23
2019-02-03T19:00:36.190Z,4.60
2019-02-03T19:03:06.601Z,5.87
2019-02-03T19:05:37.186Z,5.63
2019-02-03T19:08:06.516Z,5.23
2019-02-03T19:10:35.907Z,5.33
2019-02-03T19:13:06.491Z,5.53
2019-02-03T19:15:35.795Z,5.43
2019-02-03T19:18:05.680Z,5.90
2019-02-03T19:20:36.333Z,5.80
2019-02-03T19:23:06.889Z,6.27
2019-02-03T19:25:36.316Z,6.70
2019-02-03T19:28:05.822Z,6.47
2019-02-03T19:30:35.098Z,6.10
2019-02-03T19:33:04.601Z,6.17
2019-02-03T19:35:34.009Z,6.27
2019-02-03T19:38:06.573Z,6.40
2019-02-03T19:40:32.965Z,7.30
2019-02-03T19:43:02.326Z,6.23
2019-02-03T19:45:31.719Z,6.53
2019-02-03T19:48:01.153Z,6.67
2019-02-03T19:50:32.456Z,6.70
2019-02-03T19:53:01.815Z,6.53
2019-02-03T19:55:31.065Z,7.13
2019-02-03T19:58:00.373Z,7.37
2019-02-03T20:00:34.428Z,6.70
2019-02-03T20:03:03.800Z,7.27
2019-02-03T20:05:33.191Z,7.43
2019-02-03T20:08:02.498Z,7.70
2019-02-03T20:10:31.800Z,8.13
2019-02-03T20:13:01.902Z,8.33
2019-02-03T20:15:30.539Z,7.50
2019-02-03T20:17:59.879Z,8.03
2019-02-03T20:20:33.159Z,8.27
2019-02-03T20:23:02.532Z,7.90
2019-02-03T20:25:31.904Z,81.43
2019-02-03T20:28:01.231Z,17.77
2019-02-03T20:30:38.866Z,10.37
2019-02-03T20:33:05.771Z,10.60
2019-02-03T20:35:35.074Z,9.33
2019-02-03T20:38:04.397Z,8.07
2019-02-03T20:40:35.501Z,8.47
2019-02-03T20:43:04.941Z,8.97
2019-02-03T20:45:36.218Z,8.97
2019-02-03T20:48:03.913Z,8.73
2019-02-03T20:50:33.221Z,7.67
2019-02-03T20:53:02.488Z,8.40
2019-02-03T20:55:31.838Z,9.27
2019-02-03T20:58:01.112Z,8.47
2019-02-03T21:00:32.099Z,8.43
2019-02-03T21:03:01.491Z,8.80
2019-02-03T21:05:30.804Z,8.53
2019-02-03T21:08:00.196Z,8.53
2019-02-03T21:10:38.285Z,8.27
2019-02-03T21:13:11.789Z,8.87
2019-02-03T21:15:37.383Z,8.47
2019-02-03T21:18:07.941Z,8.73
2019-02-03T21:20:36.082Z,7.87
2019-02-03T21:23:05.435Z,7.53
2019-02-03T21:25:34.676Z,8.13
2019-02-03T21:28:04.044Z,6.97
2019-02-03T21:30:35.386Z,7.67
2019-02-03T21:33:04.950Z,7.40
2019-02-03T21:35:34.466Z,7.70
2019-02-03T21:38:07.110Z,7.30
2019-02-03T21:40:36.413Z,7.10
2019-02-03T21:43:05.767Z,6.57
2019-02-03T21:45:44.477Z,6.93
2019-02-03T21:48:05.176Z,7.20
2019-02-03T21:50:34.579Z,7.87
2019-02-03T21:53:03.881Z,7.07
2019-02-03T21:55:38.358Z,7.80
2019-02-03T21:58:07.512Z,7.63
2019-02-03T22:00:36.759Z,8.70
2019-02-03T22:03:06.112Z,6.70
2019-02-03T22:05:35.682Z,5.83
2019-02-03T22:08:05.295Z,6.17
2019-02-03T22:10:36.448Z,6.47
2019-02-03T22:13:06.070Z,5.87
2019-02-03T22:15:35.453Z,5.13
2019-02-03T22:18:04.787Z,5.30
2019-02-03T22:20:34.162Z,5.73
2019-02-03T22:23:03.710Z,5.33
2019-02-03T22:25:33.187Z,5.20
2019-02-03T22:28:02.375Z,4.80
2019-02-03T22:30:36.373Z,4.30
2019-02-03T22:33:05.975Z,4.33
2019-02-03T22:35:37.577Z,4.60
2019-02-03T22:38:07.767Z,4.57
2019-02-03T22:40:37.087Z,4.90
2019-02-03T22:43:06.470Z,4.30
2019-02-03T22:45:35.810Z,3.90
2019-02-03T22:48:05.998Z,4.00
2019-02-03T22:50:35.302Z,4.67
2019-02-03T22:53:04.572Z,4.93
2019-02-03T22:55:33.913Z,4.00
2019-02-03T22:58:03.197Z,4.27
2019-02-03T23:01:05.157Z,4.33
2019-02-03T23:03:46.817Z,4.33
2019-02-03T23:06:16.077Z,3.83
2019-02-03T23:08:45.457Z,3.87
2019-02-03T23:11:14.778Z,4.07
2019-02-03T23:13:44.098Z,4.63
2019-02-03T23:16:18.257Z,4.70
2019-02-03T23:18:42.829Z,4.53
2019-02-03T23:21:12.082Z,5.03
2019-02-03T23:23:41.366Z,5.03
2019-02-03T23:26:10.642Z,5.87
2019-02-03T23:28:43.146Z,4.80
2019-02-03T23:31:12.414Z,4.83
2019-02-03T23:33:41.735Z,4.90
2019-02-03T23:36:11.075Z,4.80
2019-02-03T23:38:43.360Z,4.40
2019-02-03T23:41:12.745Z,4.60
2019-02-03T23:43:42.021Z,4.83
2019-02-03T23:46:13.337Z,3.70
2019-02-03T23:48:40.725Z,4.00
2019-02-03T23:51:10.053Z,4.30
2019-02-03T23:53:39.435Z,4.33
2019-02-03T23:56:08.754Z,4.30
2019-02-03T23:58:38.028Z,4.40
